sensor_id;sensor_type;location;lat;lon;timestamp;temperature;humidity
2447;DHT22;26430;48.818;9.244;2023-05-24T00:00:30;15.60;99.90
2447;DHT22;26430;48.818;9.244;2023-05-24T00:02:55;15.50;99.90
2447;DHT22;26430;48.818;9.244;2023-05-24T00:05:22;15.50;99.90
2447;DHT22;26430;48.818;9.244;2023-05-24T00:07:48;15.50;99.90
2447;DHT22;26430;48.818;9.244;2023-05-24T00:10:13;15.50;99.90
2447;DHT22;26430;48.818;9.244;2023-05-24T00:12:39;15.40;99.90
2447;DHT22;26430;48.818;9.244;2023-05-24T00:15:05;15.40;99.90
2447;DHT22;26430;48.818;9.244;2023-05-24T00:17:31;15.40;99.90
2447;DHT22;26430;48.818;9.244;2023-05-24T00:19:59;15.30;99.90
2447;DHT22;26430;48.818;9.244;2023-05-24T00:22:24;15.30;99.90
2447;DHT22;26430;48.818;9.244;2023-05-24T00:24:50;15.30;99.90
2447;DHT22;26430;48.818;9.244;2023-05-24T00:27:15;15.20;99.90
2447;DHT22;26430;48.818;9.244;2023-05-24T00:29:41;15.30;99.90
2447;DHT22;26430;48.818;9.244;2023-05-24T00:32:07;15.10;99.90
2447;DHT22;26430;48.818;9.244;2023-05-24T00:34:32;15.20;99.90
2447;DHT22;26430;48.818;9.244;2023-05-24T00:36:58;15.40;99.90
2447;DHT22;26430;48.818;9.244;2023-05-24T00:39:25;15.50;99.90
2447;DHT22;26430;48.818;9.244;2023-05-24T00:41:50;15.60;99.90
2447;DHT22;26430;48.818;9.244;2023-05-24T00:44:16;15.50;99.90
2447;DHT22;26430;48.818;9.244;2023-05-24T00:46:42;15.30;99.90
2447;DHT22;26430;48.818;9.244;2023-05-24T00:49:08;15.40;99.90
2447;DHT22;26430;48.818;9.244;2023-05-24T00:51:34;15.40;99.90
2447;DHT22;26430;48.818;9.244;2023-05-24T00:54:01;15.50;99.90
2447;DHT22;26430;48.818;9.244;2023-05-24T00:56:27;15.40;99.90
2447;DHT22;26430;48.818;9.244;2023-05-24T00:58:53;15.40;99.90
2447;DHT22;26430;48.818;9.244;2023-05-24T01:01:20;15.40;99.90
2447;DHT22;26430;48.818;9.244;2023-05-24T01:03:50;15.30;99.90
2447;DHT22;26430;48.818;9.244;2023-05-24T01:06:16;15.40;99.90
2447;DHT22;26430;48.818;9.244;2023-05-24T01:12:06;15.40;99.90
2447;DHT22;26430;48.818;9.244;2023-05-24T01:15:01;15.30;99.90
2447;DHT22;26430;48.818;9.244;2023-05-24T01:17:39;15.20;99.90
2447;DHT22;26430;48.818;9.244;2023-05-24T01:20:11;15.20;99.90
2447;DHT22;26430;48.818;9.244;2023-05-24T01:22:59;15.10;99.90
2447;DHT22;26430;48.818;9.244;2023-05-24T01:27:53;15.10;99.90
2447;DHT22;26430;48.818;9.244;2023-05-24T01:30:20;15.10;99.90
2447;DHT22;26430;48.818;9.244;2023-05-24T01:32:46;15.00;99.90
2447;DHT22;26430;48.818;9.244;2023-05-24T01:35:12;15.00;99.90
2447;DHT22;26430;48.818;9.244;2023-05-24T01:37:37;14.90;99.90
2447;DHT22;26430;48.818;9.244;2023-05-24T01:40:04;15.00;99.90
2447;DHT22;26430;48.818;9.244;2023-05-24T01:42:33;15.00;99.90
2447;DHT22;26430;48.818;9.244;2023-05-24T01:48:01;15.00;99.90
2447;DHT22;26430;48.818;9.244;2023-05-24T01:50:36;15.00;99.90
2447;DHT22;26430;48.818;9.244;2023-05-24T01:53:06;15.00;99.90
2447;DHT22;26430;48.818;9.244;2023-05-24T01:55:33;15.00;99.90
2447;DHT22;26430;48.818;9.244;2023-05-24T01:58:02;14.90;99.90
2447;DHT22;26430;48.818;9.244;2023-05-24T02:00:28;14.90;99.90
2447;DHT22;26430;48.818;9.244;2023-05-24T02:02:55;15.10;99.90
2447;DHT22;26430;48.818;9.244;2023-05-24T02:05:21;15.10;99.90
2447;DHT22;26430;48.818;9.244;2023-05-24T02:07:50;15.00;99.90
2447;DHT22;26430;48.818;9.244;2023-05-24T02:10:15;15.00;99.90
2447;DHT22;26430;48.818;9.244;2023-05-24T02:12:41;15.10;99.90
2447;DHT22;26430;48.818;9.244;2023-05-24T02:15:07;15.00;99.90
2447;DHT22;26430;48.818;9.244;2023-05-24T02:17:33;14.90;99.90
2447;DHT22;26430;48.818;9.244;2023-05-24T02:20:00;14.90;99.90
2447;DHT22;26430;48.818;9.244;2023-05-24T02:22:26;15.00;99.90
2447;DHT22;26430;48.818;9.244;2023-05-24T02:24:52;15.10;99.90
2447;DHT22;26430;48.818;9.244;2023-05-24T02:27:18;14.90;99.90
2447;DHT22;26430;48.818;9.244;2023-05-24T02:29:44;15.00;99.90
2447;DHT22;26430;48.818;9.244;2023-05-24T02:32:12;14.90;99.90
2447;DHT22;26430;48.818;9.244;2023-05-24T02:34:37;14.70;99.90
2447;DHT22;26430;48.818;9.244;2023-05-24T02:37:03;14.60;99.90
2447;DHT22;26430;48.818;9.244;2023-05-24T02:39:29;14.70;99.90
2447;DHT22;26430;48.818;9.244;2023-05-24T02:41:54;14.70;99.90
2447;DHT22;26430;48.818;9.244;2023-05-24T02:44:20;14.70;99.90
2447;DHT22;26430;48.818;9.244;2023-05-24T02:46:46;14.80;99.90
2447;DHT22;26430;48.818;9.244;2023-05-24T02:49:11;14.70;99.90
2447;DHT22;26430;48.818;9.244;2023-05-24T02:51:37;14.50;99.90
2447;DHT22;26430;48.818;9.244;2023-05-24T02:54:02;14.50;99.90
2447;DHT22;26430;48.818;9.244;2023-05-24T02:56:28;14.50;99.90
2447;DHT22;26430;48.818;9.244;2023-05-24T02:58:54;14.50;99.90
2447;DHT22;26430;48.818;9.244;2023-05-24T03:01:21;14.40;99.90
2447;DHT22;26430;48.818;9.244;2023-05-24T03:03:47;14.40;99.90
2447;DHT22;26430;48.818;9.244;2023-05-24T03:06:13;14.40;99.90
2447;DHT22;26430;48.818;9.244;2023-05-24T03:08:40;14.30;99.90
2447;DHT22;26430;48.818;9.244;2023-05-24T03:11:06;14.30;99.90
2447;DHT22;26430;48.818;9.244;2023-05-24T03:13:31;14.30;99.90
2447;DHT22;26430;48.818;9.244;2023-05-24T03:15:57;14.20;99.90
2447;DHT22;26430;48.818;9.244;2023-05-24T03:18:23;14.20;99.90
2447;DHT22;26430;48.818;9.244;2023-05-24T03:20:49;14.10;99.90
2447;DHT22;26430;48.818;9.244;2023-05-24T03:23:14;14.10;99.90
2447;DHT22;26430;48.818;9.244;2023-05-24T03:25:40;14.00;99.90
2447;DHT22;26430;48.818;9.244;2023-05-24T03:28:06;14.00;99.90
2447;DHT22;26430;48.818;9.244;2023-05-24T03:30:32;14.10;99.90
2447;DHT22;26430;48.818;9.244;2023-05-24T03:32:57;14.10;99.90
2447;DHT22;26430;48.818;9.244;2023-05-24T03:35:23;14.20;99.90
2447;DHT22;26430;48.818;9.244;2023-05-24T03:37:49;14.10;99.90
2447;DHT22;26430;48.818;9.244;2023-05-24T03:40:15;14.00;99.90
2447;DHT22;26430;48.818;9.244;2023-05-24T03:42:40;13.90;99.90
2447;DHT22;26430;48.818;9.244;2023-05-24T03:45:06;13.90;99.90
2447;DHT22;26430;48.818;9.244;2023-05-24T03:47:32;14.00;99.90
2447;DHT22;26430;48.818;9.244;2023-05-24T03:49:58;14.10;99.90
2447;DHT22;26430;48.818;9.244;2023-05-24T03:52:24;14.10;99.90
2447;DHT22;26430;48.818;9.244;2023-05-24T03:54:49;14.00;99.90
2447;DHT22;26430;48.818;9.244;2023-05-24T03:57:15;13.90;99.90
2447;DHT22;26430;48.818;9.244;2023-05-24T03:59:41;13.90;99.90
2447;DHT22;26430;48.818;9.244;2023-05-24T04:02:07;14.00;99.90
2447;DHT22;26430;48.818;9.244;2023-05-24T04:04:32;14.00;99.90
2447;DHT22;26430;48.818;9.244;2023-05-24T04:06:58;13.90;99.90
2447;DHT22;26430;48.818;9.244;2023-05-24T04:09:23;13.80;99.90
2447;DHT22;26430;48.818;9.244;2023-05-24T04:11:49;13.80;99.90
2447;DHT22;26430;48.818;9.244;2023-05-24T04:14:15;13.80;99.90
2447;DHT22;26430;48.818;9.244;2023-05-24T04:16:41;13.80;99.90
2447;DHT22;26430;48.818;9.244;2023-05-24T04:19:09;13.70;99.90
2447;DHT22;26430;48.818;9.244;2023-05-24T04:21:36;13.70;99.90
2447;DHT22;26430;48.818;9.244;2023-05-24T04:24:03;13.80;99.90
2447;DHT22;26430;48.818;9.244;2023-05-24T04:26:29;13.80;99.90
2447;DHT22;26430;48.818;9.244;2023-05-24T04:28:55;13.70;99.90
2447;DHT22;26430;48.818;9.244;2023-05-24T04:31:21;13.70;99.90
2447;DHT22;26430;48.818;9.244;2023-05-24T04:33:47;13.70;99.90
2447;DHT22;26430;48.818;9.244;2023-05-24T04:36:14;13.60;99.90
2447;DHT22;26430;48.818;9.244;2023-05-24T04:38:40;13.60;99.90
2447;DHT22;26430;48.818;9.244;2023-05-24T04:41:06;13.60;99.90
2447;DHT22;26430;48.818;9.244;2023-05-24T04:43:32;13.60;99.90
2447;DHT22;26430;48.818;9.244;2023-05-24T04:45:59;13.80;99.90
2447;DHT22;26430;48.818;9.244;2023-05-24T04:48:24;13.90;99.90
2447;DHT22;26430;48.818;9.244;2023-05-24T04:50:51;13.90;99.90
2447;DHT22;26430;48.818;9.244;2023-05-24T04:53:20;13.80;99.90
2447;DHT22;26430;48.818;9.244;2023-05-24T04:55:47;13.70;99.90
2447;DHT22;26430;48.818;9.244;2023-05-24T04:58:13;13.80;99.90
2447;DHT22;26430;48.818;9.244;2023-05-24T05:00:38;13.80;99.90
2447;DHT22;26430;48.818;9.244;2023-05-24T05:03:04;13.90;99.90
2447;DHT22;26430;48.818;9.244;2023-05-24T05:05:30;13.90;99.90
2447;DHT22;26430;48.818;9.244;2023-05-24T05:07:55;13.80;99.90
2447;DHT22;26430;48.818;9.244;2023-05-24T05:10:21;13.70;99.90
2447;DHT22;26430;48.818;9.244;2023-05-24T05:12:47;13.70;99.90
2447;DHT22;26430;48.818;9.244;2023-05-24T05:15:13;13.70;99.90
2447;DHT22;26430;48.818;9.244;2023-05-24T05:17:38;13.90;99.90
2447;DHT22;26430;48.818;9.244;2023-05-24T05:20:05;13.90;99.90
2447;DHT22;26430;48.818;9.244;2023-05-24T05:22:31;13.80;99.90
2447;DHT22;26430;48.818;9.244;2023-05-24T05:24:57;13.90;99.90
2447;DHT22;26430;48.818;9.244;2023-05-24T05:27:22;13.90;99.90
2447;DHT22;26430;48.818;9.244;2023-05-24T05:29:48;13.80;99.90
2447;DHT22;26430;48.818;9.244;2023-05-24T05:32:14;13.80;99.90
2447;DHT22;26430;48.818;9.244;2023-05-24T05:34:39;13.90;99.90
2447;DHT22;26430;48.818;9.244;2023-05-24T05:37:05;13.90;99.90
2447;DHT22;26430;48.818;9.244;2023-05-24T05:39:31;14.00;99.90
2447;DHT22;26430;48.818;9.244;2023-05-24T05:41:57;14.00;99.90
2447;DHT22;26430;48.818;9.244;2023-05-24T05:44:22;14.00;99.90
2447;DHT22;26430;48.818;9.244;2023-05-24T05:46:48;14.10;99.90
2447;DHT22;26430;48.818;9.244;2023-05-24T05:49:14;14.20;99.90
2447;DHT22;26430;48.818;9.244;2023-05-24T05:51:41;14.30;99.90
2447;DHT22;26430;48.818;9.244;2023-05-24T05:54:07;14.40;99.90
2447;DHT22;26430;48.818;9.244;2023-05-24T05:56:40;14.40;99.90
2447;DHT22;26430;48.818;9.244;2023-05-24T05:59:10;14.40;99.90
2447;DHT22;26430;48.818;9.244;2023-05-24T06:01:36;14.30;99.90
2447;DHT22;26430;48.818;9.244;2023-05-24T06:04:02;14.30;99.90
2447;DHT22;26430;48.818;9.244;2023-05-24T06:06:27;14.30;99.90
2447;DHT22;26430;48.818;9.244;2023-05-24T06:08:53;14.30;99.90
2447;DHT22;26430;48.818;9.244;2023-05-24T06:11:18;14.20;99.90
2447;DHT22;26430;48.818;9.244;2023-05-24T06:13:44;14.30;99.90
2447;DHT22;26430;48.818;9.244;2023-05-24T06:16:09;14.30;99.90
2447;DHT22;26430;48.818;9.244;2023-05-24T06:18:35;14.20;99.90
2447;DHT22;26430;48.818;9.244;2023-05-24T06:21:01;14.10;99.90
2447;DHT22;26430;48.818;9.244;2023-05-24T06:23:27;14.20;99.90
2447;DHT22;26430;48.818;9.244;2023-05-24T06:25:52;14.30;99.90
2447;DHT22;26430;48.818;9.244;2023-05-24T06:28:18;14.20;99.90
2447;DHT22;26430;48.818;9.244;2023-05-24T06:30:43;14.10;99.90
2447;DHT22;26430;48.818;9.244;2023-05-24T06:33:09;14.20;99.90
2447;DHT22;26430;48.818;9.244;2023-05-24T06:35:35;14.20;99.90
2447;DHT22;26430;48.818;9.244;2023-05-24T06:38:00;14.50;99.90
2447;DHT22;26430;48.818;9.244;2023-05-24T06:40:26;14.50;99.90
2447;DHT22;26430;48.818;9.244;2023-05-24T06:42:51;14.70;99.90
2447;DHT22;26430;48.818;9.244;2023-05-24T06:45:17;14.70;99.90
2447;DHT22;26430;48.818;9.244;2023-05-24T06:47:42;14.80;99.90
2447;DHT22;26430;48.818;9.244;2023-05-24T06:50:08;14.90;99.90
2447;DHT22;26430;48.818;9.244;2023-05-24T06:52:34;15.00;99.90
2447;DHT22;26430;48.818;9.244;2023-05-24T06:55:00;14.90;99.90
2447;DHT22;26430;48.818;9.244;2023-05-24T06:57:25;14.80;99.90
2447;DHT22;26430;48.818;9.244;2023-05-24T06:59:51;14.80;99.90
2447;DHT22;26430;48.818;9.244;2023-05-24T07:02:17;14.90;99.90
2447;DHT22;26430;48.818;9.244;2023-05-24T07:04:42;14.80;99.90
2447;DHT22;26430;48.818;9.244;2023-05-24T07:07:08;14.80;99.90
2447;DHT22;26430;48.818;9.244;2023-05-24T07:09:38;14.70;99.90
2447;DHT22;26430;48.818;9.244;2023-05-24T07:12:04;14.60;99.90
2447;DHT22;26430;48.818;9.244;2023-05-24T07:14:29;14.60;99.90
2447;DHT22;26430;48.818;9.244;2023-05-24T07:16:55;14.50;99.90
2447;DHT22;26430;48.818;9.244;2023-05-24T07:19:24;14.60;99.90
2447;DHT22;26430;48.818;9.244;2023-05-24T07:21:54;14.50;99.90
2447;DHT22;26430;48.818;9.244;2023-05-24T07:24:19;14.50;99.90
2447;DHT22;26430;48.818;9.244;2023-05-24T07:26:47;14.40;99.90
2447;DHT22;26430;48.818;9.244;2023-05-24T07:29:13;14.40;99.90
2447;DHT22;26430;48.818;9.244;2023-05-24T07:31:38;14.40;99.90
2447;DHT22;26430;48.818;9.244;2023-05-24T07:34:04;14.50;99.90
2447;DHT22;26430;48.818;9.244;2023-05-24T07:36:29;14.50;99.90
2447;DHT22;26430;48.818;9.244;2023-05-24T07:38:57;14.60;99.90
2447;DHT22;26430;48.818;9.244;2023-05-24T07:41:27;14.70;99.90
2447;DHT22;26430;48.818;9.244;2023-05-24T07:43:56;14.80;99.90
2447;DHT22;26430;48.818;9.244;2023-05-24T07:46:21;14.80;99.90
2447;DHT22;26430;48.818;9.244;2023-05-24T07:48:47;14.80;99.90
2447;DHT22;26430;48.818;9.244;2023-05-24T07:51:13;14.70;99.90
2447;DHT22;26430;48.818;9.244;2023-05-24T07:53:39;14.70;99.90
2447;DHT22;26430;48.818;9.244;2023-05-24T07:56:04;14.80;99.90
2447;DHT22;26430;48.818;9.244;2023-05-24T07:58:32;14.80;99.90
2447;DHT22;26430;48.818;9.244;2023-05-24T08:00:57;14.90;99.90
2447;DHT22;26430;48.818;9.244;2023-05-24T08:03:23;15.10;99.90
2447;DHT22;26430;48.818;9.244;2023-05-24T08:05:50;15.20;99.90
2447;DHT22;26430;48.818;9.244;2023-05-24T08:08:16;15.30;99.90
2447;DHT22;26430;48.818;9.244;2023-05-24T08:10:42;15.20;99.90
2447;DHT22;26430;48.818;9.244;2023-05-24T08:13:07;15.30;99.90
2447;DHT22;26430;48.818;9.244;2023-05-24T08:15:33;15.20;99.90
2447;DHT22;26430;48.818;9.244;2023-05-24T08:17:58;15.30;99.90
2447;DHT22;26430;48.818;9.244;2023-05-24T08:20:24;15.20;99.90
2447;DHT22;26430;48.818;9.244;2023-05-24T08:22:50;15.10;99.90
2447;DHT22;26430;48.818;9.244;2023-05-24T08:25:16;15.00;99.90
2447;DHT22;26430;48.818;9.244;2023-05-24T08:27:41;15.10;99.90
2447;DHT22;26430;48.818;9.244;2023-05-24T08:30:07;15.00;99.90
2447;DHT22;26430;48.818;9.244;2023-05-24T08:32:33;15.00;99.90
2447;DHT22;26430;48.818;9.244;2023-05-24T08:34:59;14.90;99.90
2447;DHT22;26430;48.818;9.244;2023-05-24T08:37:25;15.00;99.90
2447;DHT22;26430;48.818;9.244;2023-05-24T08:39:50;14.80;99.90
2447;DHT22;26430;48.818;9.244;2023-05-24T08:42:16;14.80;99.90
2447;DHT22;26430;48.818;9.244;2023-05-24T08:44:52;14.90;99.90
2447;DHT22;26430;48.818;9.244;2023-05-24T08:47:21;15.00;99.90
2447;DHT22;26430;48.818;9.244;2023-05-24T08:49:50;15.20;99.90
2447;DHT22;26430;48.818;9.244;2023-05-24T08:52:16;15.40;99.90
2447;DHT22;26430;48.818;9.244;2023-05-24T08:54:42;15.20;99.90
2447;DHT22;26430;48.818;9.244;2023-05-24T08:57:09;15.30;99.90
2447;DHT22;26430;48.818;9.244;2023-05-24T08:59:38;15.40;99.90
2447;DHT22;26430;48.818;9.244;2023-05-24T09:02:04;15.40;99.90
2447;DHT22;26430;48.818;9.244;2023-05-24T09:04:30;15.30;99.90
2447;DHT22;26430;48.818;9.244;2023-05-24T09:06:56;15.20;99.90
2447;DHT22;26430;48.818;9.244;2023-05-24T09:09:26;15.30;99.90
2447;DHT22;26430;48.818;9.244;2023-05-24T09:11:55;15.30;99.90
2447;DHT22;26430;48.818;9.244;2023-05-24T09:14:21;15.40;99.90
2447;DHT22;26430;48.818;9.244;2023-05-24T09:16:47;15.60;99.90
2447;DHT22;26430;48.818;9.244;2023-05-24T09:19:13;15.50;99.90
2447;DHT22;26430;48.818;9.244;2023-05-24T09:21:39;15.40;99.90
2447;DHT22;26430;48.818;9.244;2023-05-24T09:24:10;15.50;99.90
2447;DHT22;26430;48.818;9.244;2023-05-24T09:26:35;15.50;99.90
2447;DHT22;26430;48.818;9.244;2023-05-24T09:29:05;15.40;99.90
2447;DHT22;26430;48.818;9.244;2023-05-24T09:31:35;15.40;99.90
2447;DHT22;26430;48.818;9.244;2023-05-24T09:34:01;15.30;99.90
2447;DHT22;26430;48.818;9.244;2023-05-24T09:36:27;15.40;99.90
2447;DHT22;26430;48.818;9.244;2023-05-24T09:39:07;15.50;99.90
2447;DHT22;26430;48.818;9.244;2023-05-24T09:41:37;15.50;99.90
2447;DHT22;26430;48.818;9.244;2023-05-24T09:44:03;15.10;99.90
2447;DHT22;26430;48.818;9.244;2023-05-24T09:46:34;15.30;99.90
2447;DHT22;26430;48.818;9.244;2023-05-24T09:49:00;15.30;99.90
2447;DHT22;26430;48.818;9.244;2023-05-24T09:51:31;15.40;99.90
2447;DHT22;26430;48.818;9.244;2023-05-24T09:53:59;15.40;99.90
2447;DHT22;26430;48.818;9.244;2023-05-24T09:56:25;15.30;99.90
2447;DHT22;26430;48.818;9.244;2023-05-24T09:58:51;15.30;99.90
2447;DHT22;26430;48.818;9.244;2023-05-24T10:01:21;15.20;99.90
2447;DHT22;26430;48.818;9.244;2023-05-24T10:03:55;15.10;99.90
2447;DHT22;26430;48.818;9.244;2023-05-24T10:06:22;15.00;99.90
2447;DHT22;26430;48.818;9.244;2023-05-24T10:08:49;14.90;99.90
2447;DHT22;26430;48.818;9.244;2023-05-24T10:11:15;15.00;99.90
2447;DHT22;26430;48.818;9.244;2023-05-24T10:13:41;15.00;99.90
2447;DHT22;26430;48.818;9.244;2023-05-24T10:16:06;15.10;99.90
2447;DHT22;26430;48.818;9.244;2023-05-24T10:18:32;15.20;99.90
2447;DHT22;26430;48.818;9.244;2023-05-24T10:20:59;15.20;99.90
2447;DHT22;26430;48.818;9.244;2023-05-24T10:23:29;15.20;99.90
2447;DHT22;26430;48.818;9.244;2023-05-24T10:26:07;15.20;99.90
2447;DHT22;26430;48.818;9.244;2023-05-24T10:28:40;14.90;99.90
2447;DHT22;26430;48.818;9.244;2023-05-24T10:31:10;15.00;99.90
2447;DHT22;26430;48.818;9.244;2023-05-24T10:33:37;15.00;99.90
2447;DHT22;26430;48.818;9.244;2023-05-24T10:36:06;15.00;99.90
2447;DHT22;26430;48.818;9.244;2023-05-24T10:38:36;15.10;99.90
2447;DHT22;26430;48.818;9.244;2023-05-24T10:41:04;15.00;99.90
2447;DHT22;26430;48.818;9.244;2023-05-24T10:43:30;14.90;99.90
2447;DHT22;26430;48.818;9.244;2023-05-24T10:45:56;15.00;99.90
2447;DHT22;26430;48.818;9.244;2023-05-24T10:50:53;15.10;99.90
2447;DHT22;26430;48.818;9.244;2023-05-24T10:53:22;15.00;99.90
2447;DHT22;26430;48.818;9.244;2023-05-24T10:56:00;15.10;99.90
2447;DHT22;26430;48.818;9.244;2023-05-24T11:00:57;15.30;99.90
2447;DHT22;26430;48.818;9.244;2023-05-24T11:03:23;15.50;99.90
2447;DHT22;26430;48.818;9.244;2023-05-24T11:05:52;15.60;99.90
2447;DHT22;26430;48.818;9.244;2023-05-24T11:08:31;15.70;99.90
2447;DHT22;26430;48.818;9.244;2023-05-24T11:11:09;15.90;99.90
2447;DHT22;26430;48.818;9.244;2023-05-24T11:13:36;15.60;99.90
2447;DHT22;26430;48.818;9.244;2023-05-24T11:16:02;15.90;99.90
2447;DHT22;26430;48.818;9.244;2023-05-24T11:18:28;16.20;99.90
2447;DHT22;26430;48.818;9.244;2023-05-24T11:20:54;16.10;99.90
2447;DHT22;26430;48.818;9.244;2023-05-24T11:23:22;16.40;99.90
2447;DHT22;26430;48.818;9.244;2023-05-24T11:25:48;16.30;99.90
2447;DHT22;26430;48.818;9.244;2023-05-24T11:28:14;16.30;99.90
2447;DHT22;26430;48.818;9.244;2023-05-24T11:30:40;16.20;99.90
2447;DHT22;26430;48.818;9.244;2023-05-24T11:33:21;16.40;99.90
2447;DHT22;26430;48.818;9.244;2023-05-24T11:35:52;16.70;99.90
2447;DHT22;26430;48.818;9.244;2023-05-24T11:38:18;16.90;99.90
2447;DHT22;26430;48.818;9.244;2023-05-24T11:40:47;16.90;99.90
2447;DHT22;26430;48.818;9.244;2023-05-24T11:43:17;17.00;99.90
2447;DHT22;26430;48.818;9.244;2023-05-24T11:45:48;17.20;99.90
2447;DHT22;26430;48.818;9.244;2023-05-24T11:48:15;17.40;99.90
2447;DHT22;26430;48.818;9.244;2023-05-24T11:50:43;16.70;99.90
2447;DHT22;26430;48.818;9.244;2023-05-24T11:53:13;17.40;99.90
2447;DHT22;26430;48.818;9.244;2023-05-24T11:55:41;17.70;99.90
2447;DHT22;26430;48.818;9.244;2023-05-24T11:58:31;18.10;99.90
2447;DHT22;26430;48.818;9.244;2023-05-24T12:01:00;17.80;99.90
2447;DHT22;26430;48.818;9.244;2023-05-24T12:03:28;18.20;99.90
2447;DHT22;26430;48.818;9.244;2023-05-24T12:05:56;18.50;99.90
2447;DHT22;26430;48.818;9.244;2023-05-24T12:08:22;18.70;99.90
2447;DHT22;26430;48.818;9.244;2023-05-24T12:10:48;18.80;99.90
2447;DHT22;26430;48.818;9.244;2023-05-24T12:13:24;18.80;99.50
2447;DHT22;26430;48.818;9.244;2023-05-24T12:15:54;18.70;99.90
2447;DHT22;26430;48.818;9.244;2023-05-24T12:18:24;18.80;99.90
2447;DHT22;26430;48.818;9.244;2023-05-24T12:20:51;18.70;99.90
2447;DHT22;26430;48.818;9.244;2023-05-24T12:23:23;18.20;99.90
2447;DHT22;26430;48.818;9.244;2023-05-24T12:25:48;18.50;99.80
2447;DHT22;26430;48.818;9.244;2023-05-24T12:28:15;19.00;98.60
2447;DHT22;26430;48.818;9.244;2023-05-24T12:30:40;19.10;97.60
2447;DHT22;26430;48.818;9.244;2023-05-24T12:33:09;19.70;96.80
2447;DHT22;26430;48.818;9.244;2023-05-24T12:35:35;19.50;96.60
2447;DHT22;26430;48.818;9.244;2023-05-24T12:38:00;19.90;94.70
2447;DHT22;26430;48.818;9.244;2023-05-24T12:40:26;19.80;94.90
2447;DHT22;26430;48.818;9.244;2023-05-24T12:42:58;19.60;93.90
2447;DHT22;26430;48.818;9.244;2023-05-24T12:45:24;19.50;94.60
2447;DHT22;26430;48.818;9.244;2023-05-24T12:47:55;19.70;95.60
2447;DHT22;26430;48.818;9.244;2023-05-24T12:50:23;19.70;95.00
2447;DHT22;26430;48.818;9.244;2023-05-24T12:52:49;19.70;95.50
2447;DHT22;26430;48.818;9.244;2023-05-24T12:55:22;19.60;94.60
2447;DHT22;26430;48.818;9.244;2023-05-24T12:57:48;20.20;93.50
2447;DHT22;26430;48.818;9.244;2023-05-24T13:00:23;19.80;93.00
2447;DHT22;26430;48.818;9.244;2023-05-24T13:02:49;20.70;94.30
2447;DHT22;26430;48.818;9.244;2023-05-24T13:05:17;21.10;92.10
2447;DHT22;26430;48.818;9.244;2023-05-24T13:07:44;21.30;91.90
2447;DHT22;26430;48.818;9.244;2023-05-24T13:10:10;19.90;91.60
2447;DHT22;26430;48.818;9.244;2023-05-24T13:12:36;20.60;91.30
2447;DHT22;26430;48.818;9.244;2023-05-24T13:15:02;20.90;91.80
2447;DHT22;26430;48.818;9.244;2023-05-24T13:17:28;20.30;91.70
2447;DHT22;26430;48.818;9.244;2023-05-24T13:19:53;19.90;92.00
2447;DHT22;26430;48.818;9.244;2023-05-24T13:22:19;20.00;91.40
2447;DHT22;26430;48.818;9.244;2023-05-24T13:24:45;19.90;91.30
2447;DHT22;26430;48.818;9.244;2023-05-24T13:27:11;20.00;92.30
2447;DHT22;26430;48.818;9.244;2023-05-24T13:29:37;20.20;90.60
2447;DHT22;26430;48.818;9.244;2023-05-24T13:32:02;20.40;91.60
2447;DHT22;26430;48.818;9.244;2023-05-24T13:34:28;20.80;91.10
2447;DHT22;26430;48.818;9.244;2023-05-24T13:36:54;21.40;88.00
2447;DHT22;26430;48.818;9.244;2023-05-24T13:39:20;21.60;90.10
2447;DHT22;26430;48.818;9.244;2023-05-24T13:41:47;19.80;89.10
2447;DHT22;26430;48.818;9.244;2023-05-24T13:44:14;19.50;92.00
2447;DHT22;26430;48.818;9.244;2023-05-24T13:46:41;19.40;92.30
2447;DHT22;26430;48.818;9.244;2023-05-24T13:49:07;20.00;91.80
2447;DHT22;26430;48.818;9.244;2023-05-24T13:51:33;20.30;90.40
2447;DHT22;26430;48.818;9.244;2023-05-24T13:53:59;19.90;91.20
2447;DHT22;26430;48.818;9.244;2023-05-24T13:56:25;20.40;91.20
2447;DHT22;26430;48.818;9.244;2023-05-24T13:58:57;20.60;89.20
2447;DHT22;26430;48.818;9.244;2023-05-24T14:01:23;20.70;87.60
2447;DHT22;26430;48.818;9.244;2023-05-24T14:03:49;20.40;89.10
2447;DHT22;26430;48.818;9.244;2023-05-24T14:06:15;20.10;90.10
2447;DHT22;26430;48.818;9.244;2023-05-24T14:08:40;20.10;90.50
2447;DHT22;26430;48.818;9.244;2023-05-24T14:11:06;20.20;89.30
2447;DHT22;26430;48.818;9.244;2023-05-24T14:13:32;19.70;90.50
2447;DHT22;26430;48.818;9.244;2023-05-24T14:15:58;19.30;91.70
2447;DHT22;26430;48.818;9.244;2023-05-24T14:18:23;18.90;90.70
2447;DHT22;26430;48.818;9.244;2023-05-24T14:20:49;19.30;90.50
2447;DHT22;26430;48.818;9.244;2023-05-24T14:23:14;19.60;91.20
2447;DHT22;26430;48.818;9.244;2023-05-24T14:25:40;19.20;90.90
2447;DHT22;26430;48.818;9.244;2023-05-24T14:28:06;19.40;90.80
2447;DHT22;26430;48.818;9.244;2023-05-24T14:30:32;19.20;91.50
2447;DHT22;26430;48.818;9.244;2023-05-24T14:32:58;19.60;90.80
2447;DHT22;26430;48.818;9.244;2023-05-24T14:35:25;20.10;89.10
2447;DHT22;26430;48.818;9.244;2023-05-24T14:37:51;20.10;89.50
2447;DHT22;26430;48.818;9.244;2023-05-24T14:40:18;20.30;85.80
2447;DHT22;26430;48.818;9.244;2023-05-24T14:42:43;19.80;87.00
2447;DHT22;26430;48.818;9.244;2023-05-24T14:45:10;19.20;90.30
2447;DHT22;26430;48.818;9.244;2023-05-24T14:47:35;19.20;89.00
2447;DHT22;26430;48.818;9.244;2023-05-24T14:50:01;18.80;90.70
2447;DHT22;26430;48.818;9.244;2023-05-24T14:52:27;18.60;91.10
2447;DHT22;26430;48.818;9.244;2023-05-24T14:54:53;18.80;90.10
2447;DHT22;26430;48.818;9.244;2023-05-24T14:57:18;18.40;90.40
2447;DHT22;26430;48.818;9.244;2023-05-24T14:59:44;18.40;91.20
2447;DHT22;26430;48.818;9.244;2023-05-24T15:02:09;18.50;90.70
2447;DHT22;26430;48.818;9.244;2023-05-24T15:04:35;18.80;90.30
2447;DHT22;26430;48.818;9.244;2023-05-24T15:07:00;19.00;90.70
2447;DHT22;26430;48.818;9.244;2023-05-24T15:09:27;19.00;88.20
2447;DHT22;26430;48.818;9.244;2023-05-24T15:11:53;18.30;87.80
2447;DHT22;26430;48.818;9.244;2023-05-24T15:14:19;18.70;89.80
2447;DHT22;26430;48.818;9.244;2023-05-24T15:16:45;18.60;88.10
2447;DHT22;26430;48.818;9.244;2023-05-24T15:19:11;19.10;89.80
2447;DHT22;26430;48.818;9.244;2023-05-24T15:21:37;19.20;89.30
2447;DHT22;26430;48.818;9.244;2023-05-24T15:24:03;19.40;89.90
2447;DHT22;26430;48.818;9.244;2023-05-24T15:26:28;19.50;90.00
2447;DHT22;26430;48.818;9.244;2023-05-24T15:28:54;19.50;87.90
2447;DHT22;26430;48.818;9.244;2023-05-24T15:31:20;19.80;86.60
2447;DHT22;26430;48.818;9.244;2023-05-24T15:33:45;19.70;85.00
2447;DHT22;26430;48.818;9.244;2023-05-24T15:36:11;19.40;86.10
2447;DHT22;26430;48.818;9.244;2023-05-24T15:38:39;19.20;86.00
2447;DHT22;26430;48.818;9.244;2023-05-24T15:41:04;19.40;87.70
2447;DHT22;26430;48.818;9.244;2023-05-24T15:43:30;19.70;85.30
2447;DHT22;26430;48.818;9.244;2023-05-24T15:45:56;19.40;87.30
2447;DHT22;26430;48.818;9.244;2023-05-24T15:48:21;19.40;87.00
2447;DHT22;26430;48.818;9.244;2023-05-24T15:50:47;20.00;86.40
2447;DHT22;26430;48.818;9.244;2023-05-24T15:53:13;20.50;86.40
2447;DHT22;26430;48.818;9.244;2023-05-24T15:55:38;20.60;83.50